Terminal Aerodrome Forecast
Issued by NWS

Home | Current Version | Previous Version | Text Only | Print | Product List | Glossary On
Versions: 1 2 3 4 5 6 7 8 9 10 11 12 13 14 15 16 17 18
981
FTUS43 KOAX 282204 AAA
TAFSNY
TAF AMD
KSNY 282204Z 2822/2918 27025G35KT P6SM -TSRA BKN120CB
     FM282300 22009KT P6SM VCTS BKN100CB
     FM290500 23005KT P6SM SCT080
     FM291600 33016G22KT P6SM SKC=

USA.gov is the U.S. government's official web portal to all federal, state and local government web resources and services.